createdAt,value
2023-04-18T00:01:03.743Z,29.90
2023-04-18T00:04:04.953Z,29.62
2023-04-18T00:07:05.751Z,29.77
2023-04-18T00:10:06.796Z,30.03
2023-04-18T00:13:07.737Z,29.72
2023-04-18T00:16:08.843Z,29.62
2023-04-18T00:19:10.735Z,29.82
2023-04-18T00:22:11.857Z,29.86
2023-04-18T00:25:12.734Z,29.89
2023-04-18T00:28:13.776Z,29.72
2023-04-18T00:31:15.845Z,29.75
2023-04-18T00:34:17.793Z,29.82
2023-04-18T00:37:20.760Z,29.84
2023-04-18T00:40:21.820Z,29.63
2023-04-18T00:43:22.730Z,30.00
2023-04-18T00:46:23.812Z,29.76
2023-04-18T00:49:24.754Z,29.63
2023-04-18T00:52:25.788Z,29.73
2023-04-18T00:55:26.728Z,29.81
2023-04-18T00:58:27.769Z,29.75
2023-04-18T01:01:28.764Z,30.24
2023-04-18T01:04:30.833Z,30.22
2023-04-18T01:07:31.744Z,29.85
2023-04-18T01:10:32.773Z,29.78
2023-04-18T01:13:33.730Z,29.95
2023-04-18T01:16:34.769Z,30.09
2023-04-18T01:19:35.715Z,29.90
2023-04-18T01:22:36.922Z,29.96
2023-04-18T01:25:37.728Z,29.83
2023-04-18T01:28:38.807Z,29.95
2023-04-18T01:31:39.765Z,29.77
2023-04-18T01:34:42.765Z,29.83
2023-04-18T01:37:44.719Z,30.16
2023-04-18T01:40:45.816Z,29.86
2023-04-18T01:43:46.746Z,29.78
2023-04-18T01:46:47.841Z,29.86
2023-04-18T01:49:52.708Z,29.89
2023-04-18T01:52:55.792Z,29.75
2023-04-18T01:55:56.706Z,29.70
2023-04-18T01:58:57.808Z,29.65
2023-04-18T02:01:58.776Z,29.68
2023-04-18T02:04:59.756Z,29.82
2023-04-18T02:08:00.733Z,29.70
2023-04-18T02:11:01.747Z,30.09
2023-04-18T02:14:02.766Z,29.75
2023-04-18T02:17:03.776Z,29.67
2023-04-18T02:20:04.767Z,30.03
2023-04-18T02:23:05.827Z,29.84
2023-04-18T02:26:06.755Z,29.69
2023-04-18T02:29:07.772Z,29.61
2023-04-18T02:32:08.812Z,29.91
2023-04-18T02:35:11.769Z,29.75
2023-04-18T02:38:15.745Z,29.78
2023-04-18T02:41:21.787Z,29.68
2023-04-18T02:44:23.736Z,29.73
2023-04-18T02:47:24.780Z,29.69
2023-04-18T02:50:25.721Z,29.72
2023-04-18T02:53:26.778Z,29.82
2023-04-18T02:56:30.695Z,29.87
2023-04-18T02:59:46.775Z,29.83
2023-04-18T03:02:47.811Z,29.91
2023-04-18T03:05:59.785Z,29.75
2023-04-18T03:09:01.725Z,29.78
2023-04-18T03:12:06.778Z,29.75
2023-04-18T03:15:08.716Z,29.82
2023-04-18T03:18:09.780Z,29.75
2023-04-18T03:21:10.683Z,29.89
2023-04-18T03:24:12.322Z,29.86
2023-04-18T03:27:16.716Z,29.84
2023-04-18T03:30:17.804Z,29.78
2023-04-18T03:33:23.700Z,29.80
2023-04-18T03:36:35.756Z,29.69
2023-04-18T03:39:38.741Z,30.14
2023-04-18T03:42:39.748Z,30.10
2023-04-18T03:45:40.768Z,29.70
2023-04-18T03:48:43.752Z,29.76
2023-04-18T03:51:46.728Z,29.68
2023-04-18T03:54:47.750Z,29.66
2023-04-18T03:57:52.759Z,29.72
2023-04-18T04:00:56.758Z,29.85
2023-04-18T04:03:57.805Z,29.61
2023-04-18T04:06:58.723Z,29.83
2023-04-18T04:09:59.755Z,29.68
2023-04-18T04:13:00.768Z,29.70
2023-04-18T04:16:04.830Z,29.55
2023-04-18T04:19:05.746Z,29.79
2023-04-18T04:22:13.718Z,29.70
2023-04-18T04:25:14.808Z,29.57
2023-04-18T04:28:15.728Z,29.86
2023-04-18T04:31:22.810Z,29.67
2023-04-18T04:34:24.688Z,29.69
2023-04-18T04:37:27.771Z,29.76
2023-04-18T04:40:38.682Z,29.79
2023-04-18T04:43:40.767Z,29.78
2023-04-18T04:46:46.702Z,29.62
2023-04-18T04:49:51.732Z,29.89
2023-04-18T04:52:53.744Z,29.82
2023-04-18T04:55:54.765Z,30.04
2023-04-18T04:58:55.692Z,30.07
2023-04-18T05:02:01.815Z,29.67
2023-04-18T05:05:03.709Z,29.78
2023-04-18T05:08:04.910Z,29.38
2023-04-18T05:11:05.688Z,29.75
2023-04-18T05:14:06.747Z,29.95
2023-04-18T05:17:08.787Z,29.77
2023-04-18T05:20:09.766Z,29.77
2023-04-18T05:23:10.700Z,29.81
2023-04-18T05:26:12.056Z,29.75
2023-04-18T05:29:12.706Z,29.69
2023-04-18T05:32:13.757Z,29.96
2023-04-18T05:35:14.707Z,30.03
2023-04-18T05:38:15.726Z,29.95
2023-04-18T05:41:16.723Z,29.72
2023-04-18T05:44:18.098Z,30.03
2023-04-18T05:47:18.722Z,29.81
2023-04-18T05:50:19.751Z,29.82
2023-04-18T05:53:20.697Z,29.91
2023-04-18T05:56:21.728Z,29.91
2023-04-18T05:59:22.680Z,29.75
2023-04-18T06:02:23.875Z,29.79
2023-04-18T06:05:24.896Z,30.00
2023-04-18T06:08:25.773Z,30.03
2023-04-18T06:11:27.686Z,29.62
2023-04-18T06:14:28.787Z,29.72
2023-04-18T06:17:29.748Z,29.74
2023-04-18T06:20:30.775Z,30.05
2023-04-18T06:23:31.674Z,30.08
2023-04-18T06:26:32.868Z,29.84
2023-04-18T06:29:37.944Z,30.05
2023-04-18T06:32:38.818Z,29.78
2023-04-18T06:35:39.706Z,29.75
2023-04-18T06:38:40.703Z,29.97
2023-04-18T06:41:41.692Z,29.89
2023-04-18T06:44:53.715Z,29.86
2023-04-18T06:47:54.747Z,29.95
2023-04-18T06:50:55.761Z,29.66
2023-04-18T06:53:59.689Z,29.66
2023-04-18T06:57:00.730Z,29.73
2023-04-18T07:00:01.721Z,30.17
2023-04-18T07:03:03.011Z,29.86
2023-04-18T07:06:03.702Z,30.04
2023-04-18T07:09:07.750Z,29.93
2023-04-18T07:12:08.695Z,29.85
2023-04-18T07:15:10.717Z,30.07
2023-04-18T07:18:12.473Z,29.81
2023-04-18T07:21:16.717Z,29.83
2023-04-18T07:24:17.668Z,29.95
2023-04-18T07:27:18.974Z,29.90
2023-04-18T07:30:19.659Z,29.69
2023-04-18T07:33:20.738Z,29.68
2023-04-18T07:36:21.680Z,29.66
2023-04-18T07:39:22.732Z,29.74
2023-04-18T07:42:23.730Z,29.75
2023-04-18T07:45:24.739Z,29.81
2023-04-18T07:48:25.710Z,29.85
2023-04-18T07:51:26.733Z,29.87
2023-04-18T07:54:27.722Z,29.90
2023-04-18T07:57:28.733Z,30.16
2023-04-18T08:00:32.824Z,29.80
2023-04-18T08:03:33.814Z,29.51
2023-04-18T08:06:27.851Z,29.93
2023-04-18T08:09:23.715Z,29.70
2023-04-18T08:12:24.675Z,29.88
2023-04-18T08:15:25.694Z,30.06
2023-04-18T08:18:26.803Z,30.03
2023-04-18T08:21:27.722Z,29.92
2023-04-18T08:24:28.689Z,29.73
2023-04-18T08:27:29.761Z,30.13
2023-04-18T08:30:30.680Z,29.93
2023-04-18T08:33:31.735Z,30.12
2023-04-18T08:36:32.714Z,30.08
2023-04-18T08:39:33.717Z,30.10
2023-04-18T08:42:35.688Z,29.84
2023-04-18T08:45:39.465Z,30.06
2023-04-18T08:48:40.646Z,30.01
2023-04-18T08:51:42.744Z,30.48
2023-04-18T08:54:44.692Z,30.30
2023-04-18T08:57:46.751Z,30.01
2023-04-18T09:00:47.668Z,29.88
2023-04-18T09:03:49.768Z,29.96
2023-04-18T09:07:05.708Z,29.99
2023-04-18T09:10:06.719Z,29.97
2023-04-18T09:13:07.677Z,30.05
2023-04-18T09:16:08.747Z,29.79
2023-04-18T09:19:28.650Z,29.93
2023-04-18T09:22:29.759Z,30.24
2023-04-18T09:25:48.672Z,30.14
2023-04-18T09:28:50.823Z,30.14
2023-04-18T09:32:09.664Z,30.22
2023-04-18T09:35:11.706Z,29.98
2023-04-18T09:38:12.675Z,30.08
2023-04-18T09:41:23.764Z,30.13
2023-04-18T09:44:24.677Z,29.99
2023-04-18T09:47:25.755Z,30.11
2023-04-18T09:50:27.712Z,29.74
2023-04-18T09:53:32.001Z,29.92
2023-04-18T09:56:38.655Z,30.08
2023-04-18T09:59:50.819Z,29.92
2023-04-18T10:03:00.725Z,30.03
2023-04-18T10:06:01.706Z,29.68
2023-04-18T10:08:57.780Z,29.99
2023-04-18T10:11:51.726Z,30.09
2023-04-18T10:14:55.668Z,30.13
2023-04-18T10:18:08.717Z,29.99
2023-04-18T10:21:15.680Z,30.23
2023-04-18T10:24:16.704Z,30.19
2023-04-18T10:27:17.710Z,30.28
2023-04-18T10:30:18.783Z,30.35
2023-04-18T10:33:42.720Z,30.32
2023-04-18T10:36:43.689Z,30.58
2023-04-18T10:39:44.673Z,30.23
2023-04-18T10:43:08.689Z,30.38
2023-04-18T10:46:31.889Z,30.33
2023-04-18T10:49:39.688Z,30.45
2023-04-18T10:52:40.653Z,30.06
2023-04-18T10:55:44.680Z,30.57
2023-04-18T10:58:45.643Z,30.20
2023-04-18T11:01:49.735Z,29.93
2023-04-18T11:04:50.630Z,30.33
2023-04-18T11:07:57.708Z,29.87
2023-04-18T11:11:06.969Z,29.90
2023-04-18T11:14:04.806Z,30.25
2023-04-18T11:17:05.637Z,30.27
2023-04-18T11:20:19.750Z,30.06
2023-04-18T11:23:30.667Z,30.06
2023-04-18T11:26:31.723Z,30.12
2023-04-18T11:29:32.662Z,29.99
2023-04-18T11:32:35.833Z,30.18
2023-04-18T11:35:36.652Z,29.89
2023-04-18T11:38:41.725Z,29.99
2023-04-18T11:41:42.638Z,29.69
2023-04-18T11:44:46.679Z,29.51
2023-04-18T11:47:48.672Z,28.69
2023-04-18T11:50:49.687Z,29.43
2023-04-18T11:53:51.630Z,28.92
2023-04-18T11:57:00.666Z,29.14
2023-04-18T12:00:04.632Z,29.86
2023-04-18T12:03:05.949Z,29.85
2023-04-18T12:06:12.809Z,29.62
2023-04-18T12:09:13.682Z,30.16
2023-04-18T12:12:07.729Z,30.39
2023-04-18T12:15:07.861Z,30.20
2023-04-18T12:18:15.674Z,29.86
2023-04-18T12:21:18.667Z,30.33
2023-04-18T12:24:30.673Z,30.07
2023-04-18T12:27:31.680Z,29.73
2023-04-18T12:30:33.382Z,29.41
2023-04-18T12:33:34.957Z,30.21
2023-04-18T12:36:35.632Z,29.85
2023-04-18T12:39:36.699Z,30.16
2023-04-18T12:42:37.629Z,30.07
2023-04-18T12:45:38.681Z,30.14
2023-04-18T12:48:39.622Z,30.03
2023-04-18T12:51:40.756Z,30.35
2023-04-18T12:54:41.636Z,30.27
2023-04-18T12:57:44.707Z,29.85
2023-04-18T13:00:46.699Z,29.31
2023-04-18T13:03:56.506Z,29.27
2023-04-18T13:07:04.630Z,30.42
2023-04-18T13:10:05.683Z,29.51
2023-04-18T13:12:59.781Z,29.35
2023-04-18T13:15:53.672Z,29.36
2023-04-18T13:18:54.634Z,29.19
2023-04-18T13:21:55.660Z,29.48
2023-04-18T13:24:56.636Z,29.28
2023-04-18T13:27:57.667Z,29.36
2023-04-18T13:30:58.661Z,29.28
2023-04-18T13:33:59.823Z,29.11
2023-04-18T13:37:00.650Z,29.57
2023-04-18T13:40:01.659Z,29.20
2023-04-18T13:43:02.646Z,29.96
2023-04-18T13:46:03.696Z,29.42
2023-04-18T13:49:04.675Z,29.23
2023-04-18T13:52:05.684Z,28.92
2023-04-18T13:55:06.635Z,29.07
2023-04-18T13:58:09.628Z,28.76
2023-04-18T14:01:10.642Z,28.53
2023-04-18T14:04:11.835Z,28.99
2023-04-18T14:07:15.611Z,28.87
2023-04-18T14:10:16.681Z,28.92
2023-04-18T14:13:17.609Z,29.42
2023-04-18T14:16:19.803Z,29.49
2023-04-18T14:19:20.621Z,29.08
2023-04-18T14:22:21.728Z,28.93
2023-04-18T14:25:23.604Z,29.44
2023-04-18T14:28:25.672Z,29.02
2023-04-18T14:31:26.665Z,29.50
2023-04-18T14:34:27.830Z,29.09
2023-04-18T14:37:28.612Z,29.18
2023-04-18T14:40:32.080Z,29.73
2023-04-18T14:43:33.635Z,29.46
2023-04-18T14:46:34.673Z,29.48
2023-04-18T14:49:35.638Z,29.63
2023-04-18T14:52:36.710Z,29.88
2023-04-18T14:55:37.619Z,29.12
2023-04-18T14:58:39.650Z,29.48
2023-04-18T15:01:40.670Z,29.17
2023-04-18T15:04:41.787Z,29.97
2023-04-18T15:07:44.630Z,29.90
2023-04-18T15:10:45.645Z,28.93
2023-04-18T15:13:46.625Z,29.71
2023-04-18T15:16:47.718Z,29.25
2023-04-18T15:19:48.648Z,29.13
2023-04-18T15:22:49.652Z,29.48
2023-04-18T15:25:50.595Z,29.43
2023-04-18T15:28:51.643Z,29.37
2023-04-18T15:31:53.704Z,28.65
2023-04-18T15:34:54.816Z,28.77
2023-04-18T15:37:55.598Z,29.28
2023-04-18T15:40:56.653Z,29.16
2023-04-18T15:43:57.620Z,29.27
2023-04-18T15:46:58.700Z,28.81
2023-04-18T15:49:59.630Z,28.97
2023-04-18T15:53:00.776Z,28.20
2023-04-18T15:56:01.605Z,29.13
2023-04-18T15:59:02.690Z,29.57
2023-04-18T16:02:03.655Z,29.34
2023-04-18T16:05:04.627Z,28.99
2023-04-18T16:08:05.614Z,28.17
2023-04-18T16:11:06.631Z,28.50
2023-04-18T16:14:08.678Z,29.39
2023-04-18T16:17:09.662Z,29.51
2023-04-18T16:20:10.631Z,28.98
2023-04-18T16:23:11.656Z,28.61
2023-04-18T16:26:12.618Z,29.17
2023-04-18T16:29:13.654Z,28.88
2023-04-18T16:32:14.640Z,28.99
2023-04-18T16:35:17.003Z,29.11
2023-04-18T16:38:17.625Z,28.39
2023-04-18T16:41:18.649Z,28.51
2023-04-18T16:44:19.625Z,28.68
2023-04-18T16:47:20.779Z,28.61
2023-04-18T16:50:21.598Z,29.27
2023-04-18T16:53:22.670Z,29.10
2023-04-18T16:56:23.623Z,28.48
2023-04-18T16:59:24.662Z,28.67
2023-04-18T17:02:25.737Z,28.52
2023-04-18T17:05:26.672Z,28.34
2023-04-18T17:08:27.607Z,28.44
2023-04-18T17:11:28.648Z,28.17
2023-04-18T17:14:29.606Z,28.41
2023-04-18T17:17:30.776Z,28.61
2023-04-18T17:20:31.611Z,28.89
2023-04-18T17:23:33.201Z,28.74
2023-04-18T17:26:34.639Z,29.31
2023-04-18T17:29:35.725Z,28.99
2023-04-18T17:32:36.647Z,29.31
2023-04-18T17:35:37.713Z,29.03
2023-04-18T17:38:38.613Z,29.06
2023-04-18T17:41:39.584Z,29.12
2023-04-18T17:44:40.595Z,29.30
2023-04-18T17:47:41.643Z,29.87
2023-04-18T17:50:44.615Z,29.81
2023-04-18T17:53:45.652Z,29.49
2023-04-18T17:56:46.613Z,29.22
2023-04-18T17:59:47.652Z,29.67
2023-04-18T18:02:49.816Z,29.46
2023-04-18T18:05:50.633Z,30.06
2023-04-18T18:08:51.591Z,29.55
2023-04-18T18:11:55.363Z,29.44
2023-04-18T18:14:56.577Z,29.62
2023-04-18T18:17:57.679Z,29.81
2023-04-18T18:20:58.609Z,29.84
2023-04-18T18:23:59.666Z,29.81
2023-04-18T18:27:00.622Z,30.02
2023-04-18T18:30:01.768Z,30.29
2023-04-18T18:33:02.637Z,29.23
2023-04-18T18:36:03.720Z,29.93
2023-04-18T18:39:04.603Z,29.81
2023-04-18T18:42:05.641Z,29.95
2023-04-18T18:45:07.617Z,29.87
2023-04-18T18:48:10.709Z,30.21
2023-04-18T18:51:11.608Z,29.97
2023-04-18T18:54:12.626Z,29.96
2023-04-18T18:57:13.600Z,29.67
2023-04-18T19:00:17.631Z,29.55
2023-04-18T19:03:18.816Z,29.70
2023-04-18T19:06:19.605Z,29.71
2023-04-18T19:09:20.578Z,29.77
2023-04-18T19:12:21.643Z,29.75
2023-04-18T19:15:22.597Z,30.04
2023-04-18T19:18:24.621Z,29.39
2023-04-18T19:21:26.590Z,29.53
2023-04-18T19:24:27.622Z,29.85
2023-04-18T19:27:28.600Z,30.06
2023-04-18T19:30:29.626Z,29.91
2023-04-18T19:33:31.606Z,29.84
2023-04-18T19:36:32.844Z,29.82
2023-04-18T19:39:33.572Z,29.53
2023-04-18T19:42:34.604Z,29.55
2023-04-18T19:45:35.600Z,29.84
2023-04-18T19:48:36.614Z,29.34
2023-04-18T19:51:37.574Z,29.41
2023-04-18T19:54:39.631Z,29.70
2023-04-18T19:57:42.566Z,29.73
2023-04-18T20:00:43.628Z,29.84
2023-04-18T20:03:44.721Z,30.01
2023-04-18T20:06:45.616Z,30.09
2023-04-18T20:09:46.585Z,29.89
2023-04-18T20:12:49.500Z,29.82
2023-04-18T20:15:50.611Z,29.88
2023-04-18T20:18:55.065Z,29.57
2023-04-18T20:21:48.882Z,29.79
2023-04-18T20:24:42.603Z,29.97
2023-04-18T20:27:43.591Z,29.74
2023-04-18T20:30:44.689Z,29.09
2023-04-18T20:33:45.563Z,29.50
2023-04-18T20:36:47.795Z,29.09
2023-04-18T20:39:48.563Z,29.26
2023-04-18T20:42:49.598Z,29.31
2023-04-18T20:45:50.643Z,29.80
2023-04-18T20:48:51.616Z,29.93
2023-04-18T20:51:52.592Z,30.08
2023-04-18T20:54:53.608Z,29.61
2023-04-18T20:57:54.535Z,29.61
2023-04-18T21:00:55.651Z,29.45
2023-04-18T21:03:56.647Z,29.62
2023-04-18T21:06:57.617Z,29.53
2023-04-18T21:09:58.542Z,29.39
2023-04-18T21:12:59.628Z,29.09
2023-04-18T21:16:00.612Z,29.34
2023-04-18T21:19:01.620Z,29.35
2023-04-18T21:22:02.571Z,29.43
2023-04-18T21:25:03.644Z,29.67
2023-04-18T21:28:04.576Z,29.57
2023-04-18T21:31:05.649Z,29.24
2023-04-18T21:34:07.560Z,29.22
2023-04-18T21:37:08.823Z,29.79
2023-04-18T21:40:09.551Z,30.06
2023-04-18T21:43:10.568Z,29.55
2023-04-18T21:46:11.591Z,29.31
2023-04-18T21:49:12.586Z,28.81
2023-04-18T21:52:14.567Z,28.49
2023-04-18T21:55:15.599Z,28.78
2023-04-18T21:58:16.591Z,28.89
2023-04-18T22:01:17.673Z,29.04
2023-04-18T22:04:18.889Z,28.90
2023-04-18T22:07:19.595Z,29.25
2023-04-18T22:10:20.602Z,29.05
2023-04-18T22:13:21.589Z,29.06
2023-04-18T22:16:22.643Z,28.99
2023-04-18T22:19:23.599Z,28.97
2023-04-18T22:22:24.544Z,29.17
2023-04-18T22:25:25.653Z,29.37
2023-04-18T22:28:26.558Z,29.16
2023-04-18T22:31:27.717Z,29.30
2023-04-18T22:34:28.567Z,29.38
2023-04-18T22:37:29.788Z,28.59
2023-04-18T22:40:30.526Z,27.85
2023-04-18T22:43:31.612Z,28.66
2023-04-18T22:46:32.583Z,29.30
2023-04-18T22:49:34.595Z,28.61
2023-04-18T22:52:36.558Z,28.44
2023-04-18T22:55:37.602Z,29.05
2023-04-18T22:58:38.560Z,29.21
2023-04-18T23:01:39.638Z,28.81
2023-04-18T23:04:40.729Z,28.44
2023-04-18T23:07:41.589Z,28.70
2023-04-18T23:10:42.597Z,28.36
2023-04-18T23:13:43.598Z,28.81
2023-04-18T23:16:44.580Z,28.14
2023-04-18T23:19:45.603Z,28.24
2023-04-18T23:22:46.583Z,28.75
2023-04-18T23:25:47.579Z,28.47
2023-04-18T23:28:48.634Z,29.23
2023-04-18T23:31:49.715Z,28.86
2023-04-18T23:34:50.569Z,28.39
2023-04-18T23:37:51.818Z,28.66
2023-04-18T23:40:52.528Z,29.22
2023-04-18T23:43:53.612Z,29.03
2023-04-18T23:46:54.603Z,29.68
2023-04-18T23:49:55.602Z,29.34
2023-04-18T23:52:56.538Z,29.00
2023-04-18T23:55:57.596Z,29.16
2023-04-18T23:58:58.563Z,29.00
